createdAt,value
2022-11-16T00:00:48.952Z,94408.50
2022-11-16T00:01:52.319Z,94409.28
2022-11-16T00:02:55.359Z,94403.84
2022-11-16T00:03:59.811Z,94410.03
2022-11-16T00:05:02.713Z,94405.38
2022-11-16T00:06:06.688Z,94399.91
2022-11-16T00:07:10.107Z,94402.66
2022-11-16T00:08:12.170Z,94397.97
2022-11-16T00:09:23.999Z,94415.06
2022-11-16T00:10:25.841Z,94412.34
2022-11-16T00:11:28.590Z,94415.06
2022-11-16T00:12:30.376Z,94417.78
2022-11-16T00:13:33.620Z,94422.78
2022-11-16T00:14:39.527Z,94417.00
2022-11-16T00:15:41.374Z,94413.84
2022-11-16T00:16:44.229Z,94424.72
2022-11-16T00:17:47.372Z,94417.78
2022-11-16T00:18:50.227Z,94418.53
2022-11-16T00:19:52.117Z,94425.50
2022-11-16T00:20:55.003Z,94429.41
2022-11-16T00:21:57.859Z,94418.53
2022-11-16T00:22:59.740Z,94420.50
2022-11-16T00:24:03.136Z,94423.22
2022-11-16T00:25:06.216Z,94420.50
2022-11-16T00:26:11.034Z,94417.00
2022-11-16T00:27:12.980Z,94420.50
2022-11-16T00:28:16.293Z,94413.53
2022-11-16T00:29:20.456Z,94417.78
2022-11-16T00:30:23.397Z,94416.25
2022-11-16T00:31:25.248Z,94416.25
2022-11-16T00:32:28.027Z,94415.06
2022-11-16T00:33:31.533Z,94410.03
2022-11-16T00:34:34.437Z,94423.22
2022-11-16T00:35:38.966Z,94422.44
2022-11-16T00:36:41.877Z,94415.06
2022-11-16T00:37:44.731Z,94418.53
2022-11-16T00:38:51.942Z,94417.00
2022-11-16T00:39:55.511Z,94422.44
2022-11-16T00:40:57.404Z,94417.00
2022-11-16T00:42:00.218Z,94422.44
2022-11-16T00:43:03.672Z,94413.53
2022-11-16T00:44:06.700Z,94410.81
2022-11-16T00:45:09.921Z,94409.28
2022-11-16T00:46:12.842Z,94409.28
2022-11-16T00:47:14.725Z,94404.59
2022-11-16T00:48:17.842Z,94401.88
2022-11-16T00:49:21.017Z,94403.84
2022-11-16T00:50:24.025Z,94404.59
2022-11-16T00:51:25.842Z,94403.84
2022-11-16T00:52:28.923Z,94410.03
2022-11-16T00:53:31.097Z,94410.81
2022-11-16T00:54:34.040Z,94408.09
2022-11-16T00:55:36.077Z,94410.81
2022-11-16T00:56:40.108Z,94409.28
2022-11-16T00:57:42.229Z,94410.03
2022-11-16T00:58:45.980Z,94409.28
2022-11-16T00:59:47.972Z,94409.28
2022-11-16T01:00:50.930Z,94407.75
2022-11-16T01:01:52.925Z,94408.50
2022-11-16T01:02:55.806Z,94403.84
2022-11-16T01:03:57.740Z,94401.13
2022-11-16T01:05:01.934Z,94396.88
2022-11-16T01:06:07.237Z,94398.41
2022-11-16T01:07:10.214Z,94402.31
2022-11-16T01:08:12.132Z,94388.72
2022-11-16T01:09:14.954Z,94391.44
2022-11-16T01:10:19.518Z,94390.69
2022-11-16T01:11:40.092Z,94393.41
2022-11-16T01:12:42.994Z,94385.25
2022-11-16T01:13:44.858Z,94386.00
2022-11-16T01:14:49.886Z,94380.56
2022-11-16T01:15:52.282Z,94386.00
2022-11-16T01:16:55.162Z,94383.28
2022-11-16T01:17:57.313Z,94381.75
2022-11-16T01:19:00.326Z,94379.03
2022-11-16T01:20:06.110Z,94378.28
2022-11-16T01:21:09.685Z,94379.03
2022-11-16T01:22:11.550Z,94372.06
2022-11-16T01:23:14.623Z,94381.75
2022-11-16T01:24:16.461Z,94377.50
2022-11-16T01:25:19.676Z,94382.53
2022-11-16T01:26:21.679Z,94379.03
2022-11-16T01:27:25.834Z,94379.03
2022-11-16T01:28:28.614Z,94379.03
2022-11-16T01:29:32.312Z,94377.84
2022-11-16T01:30:36.425Z,94382.53
2022-11-16T01:31:43.475Z,94385.25
2022-11-16T01:32:45.327Z,94374.34
2022-11-16T01:33:48.461Z,94384.47
2022-11-16T01:34:57.775Z,94379.03
2022-11-16T01:36:14.746Z,94379.78
2022-11-16T01:37:18.687Z,94379.03
2022-11-16T01:38:20.662Z,94384.47
2022-11-16T01:39:23.667Z,94389.16
2022-11-16T01:40:30.374Z,94387.19
2022-11-16T01:41:33.799Z,94391.88
2022-11-16T01:42:40.591Z,94389.91
2022-11-16T01:43:56.395Z,94391.09
2022-11-16T01:45:07.044Z,94389.91
2022-11-16T01:46:10.230Z,94392.63
2022-11-16T01:47:15.993Z,94385.25
2022-11-16T01:48:23.398Z,94379.03
2022-11-16T01:49:29.053Z,94382.53
2022-11-16T01:50:33.210Z,94373.59
2022-11-16T01:51:37.968Z,94376.31
2022-11-16T01:52:47.393Z,94379.03
2022-11-16T01:53:49.920Z,94374.78
2022-11-16T01:54:55.251Z,94380.56
2022-11-16T01:55:59.955Z,94375.13
2022-11-16T01:57:24.448Z,94372.84
2022-11-16T01:58:35.134Z,94369.69
2022-11-16T01:59:51.381Z,94368.16
2022-11-16T02:00:55.728Z,94362.72
2022-11-16T02:02:10.025Z,94363.47
2022-11-16T02:03:12.178Z,94368.91
2022-11-16T02:04:23.052Z,94369.69
2022-11-16T02:05:40.094Z,94369.69
2022-11-16T02:07:01.396Z,94362.72
2022-11-16T02:08:38.607Z,94366.97
2022-11-16T02:09:58.954Z,94361.97
2022-11-16T02:11:23.455Z,94365.44
2022-11-16T02:12:56.521Z,94365.44
2022-11-16T02:14:21.306Z,94366.63
2022-11-16T02:15:30.315Z,94367.41
2022-11-16T02:17:03.165Z,94368.16
2022-11-16T02:18:26.413Z,94377.06
2022-11-16T02:19:53.852Z,94376.31
2022-11-16T02:21:09.582Z,94366.63
2022-11-16T02:22:28.099Z,94356.53
2022-11-16T02:23:49.088Z,94358.47
2022-11-16T02:25:00.213Z,94353.03
2022-11-16T02:26:25.213Z,94362.41
2022-11-16T02:27:53.741Z,94354.25
2022-11-16T02:29:16.442Z,94342.59
2022-11-16T02:30:21.316Z,94343.38
2022-11-16T02:31:27.381Z,94352.69
2022-11-16T02:32:37.072Z,94341.81
2022-11-16T02:33:42.293Z,94347.25
2022-11-16T02:34:51.324Z,94349.69
2022-11-16T02:35:56.850Z,94364.44
2022-11-16T02:37:03.543Z,94365.19
2022-11-16T02:38:09.697Z,94364.44
2022-11-16T02:39:17.987Z,94366.00
2022-11-16T02:40:23.596Z,94372.19
2022-11-16T02:41:29.570Z,94372.19
2022-11-16T02:42:35.967Z,94384.56
2022-11-16T02:43:43.769Z,94382.31
2022-11-16T02:44:51.005Z,94383.81
2022-11-16T02:45:57.572Z,94378.38
2022-11-16T02:47:05.071Z,94370.22
2022-11-16T02:48:12.051Z,94375.66
2022-11-16T02:49:18.264Z,94368.25
2022-11-16T02:50:23.357Z,94362.06
2022-11-16T02:51:27.725Z,94367.06
2022-11-16T02:52:31.631Z,94369.00
2022-11-16T02:53:39.026Z,94369.00
2022-11-16T02:54:42.079Z,94367.06
2022-11-16T02:55:45.565Z,94369.00
2022-11-16T02:56:55.271Z,94359.69
2022-11-16T02:58:02.896Z,94357.38
2022-11-16T02:59:09.490Z,94363.56
2022-11-16T03:00:20.665Z,94364.78
2022-11-16T03:01:27.599Z,94367.50
2022-11-16T03:02:35.897Z,94368.25
2022-11-16T03:03:43.177Z,94374.44
2022-11-16T03:04:49.661Z,94377.16
2022-11-16T03:05:56.072Z,94369.47
2022-11-16T03:07:03.131Z,94369.47
2022-11-16T03:08:17.700Z,94370.22
2022-11-16T03:09:24.827Z,94363.28
2022-11-16T03:10:46.077Z,94357.84
2022-11-16T03:12:01.434Z,94366.00
2022-11-16T03:13:10.051Z,94371.44
2022-11-16T03:14:15.984Z,94363.28
2022-11-16T03:15:20.533Z,94366.00
2022-11-16T03:16:29.434Z,94377.63
2022-11-16T03:17:38.058Z,94385.03
2022-11-16T03:18:41.933Z,94393.19
2022-11-16T03:19:49.144Z,94399.38
2022-11-16T03:20:57.612Z,94388.50
2022-11-16T03:22:07.176Z,94375.66
2022-11-16T03:23:12.238Z,94382.31
2022-11-16T03:24:18.293Z,94394.69
2022-11-16T03:25:25.981Z,94404.81
2022-11-16T03:26:35.134Z,94400.13
2022-11-16T03:27:40.193Z,94399.38
2022-11-16T03:28:52.546Z,94394.69
2022-11-16T03:30:02.263Z,94387.75
2022-11-16T03:31:13.703Z,94398.63
2022-11-16T03:32:21.325Z,94393.19
2022-11-16T03:33:30.134Z,94402.50
2022-11-16T03:34:36.705Z,94402.50
2022-11-16T03:35:46.901Z,94401.34
2022-11-16T03:36:51.010Z,94393.19
2022-11-16T03:37:58.953Z,94401.75
2022-11-16T03:39:06.506Z,94413.38
2022-11-16T03:40:12.772Z,94407.94
2022-11-16T03:41:15.335Z,94407.94
2022-11-16T03:42:19.283Z,94395.56
2022-11-16T03:43:21.473Z,94402.50
2022-11-16T03:44:24.517Z,94402.50
2022-11-16T03:45:26.840Z,94398.28
2022-11-16T03:46:31.447Z,94401.75
2022-11-16T03:47:34.093Z,94411.88
2022-11-16T03:48:38.462Z,94411.88
2022-11-16T03:49:47.676Z,94406.44
2022-11-16T03:50:53.738Z,94413.38
2022-11-16T03:51:56.177Z,94409.91
2022-11-16T03:52:59.290Z,94411.88
2022-11-16T03:54:01.814Z,94417.31
2022-11-16T03:55:06.233Z,94418.81
2022-11-16T03:56:09.330Z,94431.66
2022-11-16T03:57:15.619Z,94415.78
2022-11-16T03:58:20.245Z,94422.75
2022-11-16T03:59:23.530Z,94422.75
2022-11-16T04:00:25.404Z,94427.41
2022-11-16T04:01:31.186Z,94423.94
2022-11-16T04:02:33.593Z,94428.19
2022-11-16T04:03:36.545Z,94428.19
2022-11-16T04:04:57.301Z,94425.91
2022-11-16T04:06:17.635Z,94436.78
2022-11-16T04:07:38.430Z,94425.13
2022-11-16T04:09:00.900Z,94439.50
2022-11-16T04:10:23.320Z,94436.00
2022-11-16T04:11:44.179Z,94431.34
2022-11-16T04:13:05.020Z,94442.97
2022-11-16T04:14:32.423Z,94434.47
2022-11-16T04:15:53.311Z,94439.91
2022-11-16T04:17:14.970Z,94442.63
2022-11-16T04:18:37.639Z,94439.91
2022-11-16T04:19:58.539Z,94446.13
2022-11-16T04:21:21.215Z,94446.88
2022-11-16T04:22:47.809Z,94447.31
2022-11-16T04:24:08.443Z,94454.72
2022-11-16T04:25:15.554Z,94461.66
2022-11-16T04:26:17.590Z,94456.22
2022-11-16T04:27:44.583Z,94456.22
2022-11-16T04:28:46.562Z,94462.44
2022-11-16T04:29:50.178Z,94461.66
2022-11-16T04:31:14.781Z,94464.38
2022-11-16T04:32:41.303Z,94464.38
2022-11-16T04:34:01.759Z,94462.44
2022-11-16T04:35:22.522Z,94468.63
2022-11-16T04:36:42.769Z,94465.16
2022-11-16T04:37:49.999Z,94461.66
2022-11-16T04:38:57.254Z,94467.09
2022-11-16T04:40:00.265Z,94472.53
2022-11-16T04:41:02.118Z,94461.66
2022-11-16T04:42:16.007Z,94467.09
2022-11-16T04:43:22.097Z,94471.78
2022-11-16T04:44:29.740Z,94468.31
2022-11-16T04:45:51.094Z,94464.38
2022-11-16T04:47:07.350Z,94467.88
2022-11-16T04:48:14.649Z,94469.81
2022-11-16T04:49:16.513Z,94474.06
2022-11-16T04:50:21.009Z,94471.03
2022-11-16T04:51:24.407Z,94474.84
2022-11-16T04:52:27.212Z,94479.50
2022-11-16T04:53:30.661Z,94472.13
2022-11-16T04:54:47.992Z,94470.59
2022-11-16T04:55:51.062Z,94474.84
2022-11-16T04:56:56.012Z,94478.31
2022-11-16T04:57:59.034Z,94476.34
2022-11-16T04:59:02.368Z,94476.34
2022-11-16T05:00:07.196Z,94479.50
2022-11-16T05:01:12.002Z,94479.06
2022-11-16T05:02:15.201Z,94475.59
2022-11-16T05:03:28.019Z,94479.50
2022-11-16T05:04:30.800Z,94481.03
2022-11-16T05:05:34.485Z,94475.59
2022-11-16T05:06:36.774Z,94475.59
2022-11-16T05:07:39.826Z,94475.59
2022-11-16T05:08:47.571Z,94484.50
2022-11-16T05:09:50.938Z,94486.47
2022-11-16T05:10:53.061Z,94475.59
2022-11-16T05:11:56.204Z,94482.22
2022-11-16T05:12:58.192Z,94475.59
2022-11-16T05:14:02.895Z,94482.56
2022-11-16T05:15:06.915Z,94477.56
2022-11-16T05:16:10.088Z,94475.59
2022-11-16T05:17:12.757Z,94481.78
2022-11-16T05:18:15.621Z,94475.59
2022-11-16T05:19:37.681Z,94477.56
2022-11-16T05:20:58.410Z,94482.56
2022-11-16T05:22:00.766Z,94474.41
2022-11-16T05:23:03.986Z,94481.03
2022-11-16T05:24:24.340Z,94477.88
2022-11-16T05:25:26.884Z,94482.56
2022-11-16T05:26:29.728Z,94473.63
2022-11-16T05:27:31.674Z,94479.84
2022-11-16T05:28:35.594Z,94477.13
2022-11-16T05:29:38.631Z,94477.13
2022-11-16T05:30:41.696Z,94477.13
2022-11-16T05:31:44.635Z,94474.41
2022-11-16T05:32:47.778Z,94479.84
2022-11-16T05:33:51.402Z,94477.13
2022-11-16T05:34:57.195Z,94478.66
2022-11-16T05:36:00.136Z,94473.97
2022-11-16T05:37:03.437Z,94472.44
2022-11-16T05:38:06.788Z,94482.91
2022-11-16T05:39:13.308Z,94477.88
2022-11-16T05:40:17.604Z,94474.75
2022-11-16T05:41:25.737Z,94474.75
2022-11-16T05:42:29.335Z,94473.22
2022-11-16T05:43:31.610Z,94473.97
2022-11-16T05:44:47.290Z,94477.47
2022-11-16T05:45:50.125Z,94473.97
2022-11-16T05:46:53.302Z,94482.91
2022-11-16T05:47:55.076Z,94482.91
2022-11-16T05:48:58.107Z,94479.41
2022-11-16T05:50:02.712Z,94480.19
2022-11-16T05:51:08.987Z,94480.19
2022-11-16T05:52:11.870Z,94480.19
2022-11-16T05:53:14.455Z,94481.69
2022-11-16T05:54:19.798Z,94477.78
2022-11-16T05:55:21.726Z,94466.16
2022-11-16T05:56:24.708Z,94470.81
2022-11-16T05:57:29.134Z,94469.31
2022-11-16T05:58:31.127Z,94466.16
2022-11-16T05:59:36.054Z,94466.59
2022-11-16T06:00:39.146Z,94463.88
2022-11-16T06:01:44.425Z,94464.63
2022-11-16T06:02:46.419Z,94463.88
2022-11-16T06:03:57.368Z,94465.72
2022-11-16T06:04:59.210Z,94463.00
2022-11-16T06:06:04.331Z,94464.53
2022-11-16T06:07:06.745Z,94466.06
2022-11-16T06:08:11.886Z,94466.06
2022-11-16T06:09:14.174Z,94468.78
2022-11-16T06:10:17.020Z,94469.53
2022-11-16T06:11:21.943Z,94467.25
2022-11-16T06:12:24.767Z,94469.19
2022-11-16T06:13:26.581Z,94469.19
2022-11-16T06:14:33.072Z,94461.03
2022-11-16T06:15:37.127Z,94469.19
2022-11-16T06:16:40.251Z,94471.91
2022-11-16T06:17:44.341Z,94474.63
2022-11-16T06:18:48.883Z,94469.97
2022-11-16T06:19:51.755Z,94473.88
2022-11-16T06:20:54.893Z,94471.91
2022-11-16T06:21:59.476Z,94482.78
2022-11-16T06:23:03.325Z,94480.06
2022-11-16T06:24:09.118Z,94471.16
2022-11-16T06:25:11.614Z,94478.56
2022-11-16T06:26:18.309Z,94476.59
2022-11-16T06:27:21.441Z,94467.69
2022-11-16T06:28:25.001Z,94468.44
2022-11-16T06:29:26.884Z,94475.41
2022-11-16T06:30:30.136Z,94475.41
2022-11-16T06:31:32.093Z,94474.63
2022-11-16T06:32:37.383Z,94467.25
2022-11-16T06:33:40.691Z,94471.16
2022-11-16T06:34:50.835Z,94475.41
2022-11-16T06:35:52.806Z,94469.97
2022-11-16T06:37:01.096Z,94480.06
2022-11-16T06:38:03.600Z,94475.41
2022-11-16T06:39:06.549Z,94476.19
2022-11-16T06:40:12.146Z,94479.66
2022-11-16T06:41:18.434Z,94476.94
2022-11-16T06:42:23.838Z,94472.25
2022-11-16T06:43:28.493Z,94470.75
2022-11-16T06:44:31.830Z,94474.22
2022-11-16T06:45:36.930Z,94478.44
2022-11-16T06:46:40.919Z,94473.00
2022-11-16T06:47:42.779Z,94474.97
2022-11-16T06:48:45.699Z,94467.56
2022-11-16T06:49:49.015Z,94468.31
2022-11-16T06:50:56.951Z,94473.00
2022-11-16T06:52:01.139Z,94469.13
2022-11-16T06:53:03.051Z,94467.56
2022-11-16T06:54:06.699Z,94471.06
2022-11-16T06:55:09.377Z,94476.06
2022-11-16T06:56:15.667Z,94476.06
2022-11-16T06:57:29.483Z,94469.13
2022-11-16T06:58:33.562Z,94474.56
2022-11-16T06:59:35.823Z,94476.06
2022-11-16T07:00:39.214Z,94477.59
2022-11-16T07:01:42.954Z,94472.16
2022-11-16T07:02:47.910Z,94477.59
2022-11-16T07:03:54.066Z,94473.69
2022-11-16T07:05:02.150Z,94467.50
2022-11-16T07:06:09.269Z,94468.25
2022-11-16T07:07:14.067Z,94474.44
2022-11-16T07:08:17.010Z,94472.16
2022-11-16T07:09:18.928Z,94476.41
2022-11-16T07:10:23.109Z,94483.34
2022-11-16T07:11:24.949Z,94480.63
2022-11-16T07:12:28.366Z,94481.84
2022-11-16T07:13:33.649Z,94476.75
2022-11-16T07:14:35.544Z,94477.50
2022-11-16T07:15:40.226Z,94474.03
2022-11-16T07:16:43.929Z,94471.31
2022-11-16T07:17:47.707Z,94468.56
2022-11-16T07:18:50.738Z,94469.34
2022-11-16T07:19:52.921Z,94467.81
2022-11-16T07:20:55.788Z,94470.09
2022-11-16T07:21:57.787Z,94466.63
2022-11-16T07:23:02.439Z,94472.81
2022-11-16T07:24:04.997Z,94471.63
2022-11-16T07:25:09.434Z,94468.16
2022-11-16T07:26:12.090Z,94474.34
2022-11-16T07:27:24.114Z,94468.91
2022-11-16T07:28:29.585Z,94474.34
2022-11-16T07:29:32.328Z,94480.56
2022-11-16T07:30:53.561Z,94479.78
2022-11-16T07:32:01.899Z,94481.31
2022-11-16T07:33:25.063Z,94481.31
2022-11-16T07:34:45.232Z,94488.72
2022-11-16T07:35:51.600Z,94481.31
2022-11-16T07:36:53.619Z,94488.28
2022-11-16T07:37:56.611Z,94484.38
2022-11-16T07:38:59.953Z,94481.31
2022-11-16T07:40:03.032Z,94480.56
2022-11-16T07:41:07.780Z,94480.56
2022-11-16T07:42:13.523Z,94480.56
2022-11-16T07:43:39.966Z,94486.75
2022-11-16T07:44:47.473Z,94486.75
2022-11-16T07:45:52.425Z,94486.75
2022-11-16T07:46:55.151Z,94479.78
2022-11-16T07:47:58.216Z,94484.78
2022-11-16T07:49:19.440Z,94485.56
2022-11-16T07:50:28.382Z,94478.94
2022-11-16T07:51:32.147Z,94482.06
2022-11-16T07:52:53.207Z,94486.75
2022-11-16T07:53:56.461Z,94487.09
2022-11-16T07:55:01.741Z,94487.84
2022-11-16T07:56:06.560Z,94493.72
2022-11-16T07:57:10.100Z,94499.06
2022-11-16T07:58:15.838Z,94490.56
2022-11-16T07:59:18.360Z,94492.84
2022-11-16T08:00:22.514Z,94492.84
2022-11-16T08:01:34.428Z,94495.56
2022-11-16T08:02:37.410Z,94494.38
2022-11-16T08:03:41.345Z,94491.66
2022-11-16T08:04:44.383Z,94495.91
2022-11-16T08:05:46.817Z,94500.59
2022-11-16T08:06:51.696Z,94493.94
2022-11-16T08:07:56.610Z,94497.44
2022-11-16T08:09:01.281Z,94496.25
2022-11-16T08:10:07.821Z,94496.25
2022-11-16T08:11:11.464Z,94497.75
2022-11-16T08:12:14.756Z,94496.25
2022-11-16T08:13:16.749Z,94499.72
2022-11-16T08:14:20.175Z,94499.72
2022-11-16T08:15:26.141Z,94499.31
2022-11-16T08:16:29.367Z,94502.03
2022-11-16T08:17:41.863Z,94502.78
2022-11-16T08:18:46.940Z,94491.91
2022-11-16T08:19:51.944Z,94499.63
2022-11-16T08:20:54.165Z,94498.84
2022-11-16T08:21:58.167Z,94501.56
2022-11-16T08:23:03.448Z,94503.88
2022-11-16T08:24:10.595Z,94494.19
2022-11-16T08:25:17.770Z,94495.72
2022-11-16T08:26:22.030Z,94502.38
2022-11-16T08:27:32.728Z,94501.16
2022-11-16T08:28:37.227Z,94505.38
2022-11-16T08:29:40.121Z,94499.19
2022-11-16T08:30:46.365Z,94508.09
2022-11-16T08:31:51.342Z,94502.66
2022-11-16T08:32:55.395Z,94504.22
2022-11-16T08:34:00.887Z,94505.72
2022-11-16T08:35:04.527Z,94506.50
2022-11-16T08:36:13.795Z,94507.25
2022-11-16T08:37:17.590Z,94510.31
2022-11-16T08:38:21.233Z,94506.06
2022-11-16T08:39:25.627Z,94509.53
2022-11-16T08:40:29.224Z,94510.31
2022-11-16T08:41:35.746Z,94506.41
2022-11-16T08:42:43.270Z,94506.41
2022-11-16T08:43:50.506Z,94501.72
2022-11-16T08:44:55.778Z,94504.00
2022-11-16T08:45:58.368Z,94510.97
2022-11-16T08:47:01.371Z,94505.53
2022-11-16T08:48:10.887Z,94517.94
2022-11-16T08:49:14.093Z,94520.66
2022-11-16T08:50:16.571Z,94514.03
2022-11-16T08:51:20.749Z,94521.00
2022-11-16T08:52:30.364Z,94519.78
2022-11-16T08:53:33.443Z,94524.06
2022-11-16T08:54:36.430Z,94522.09
2022-11-16T08:55:39.834Z,94522.50
2022-11-16T08:56:42.932Z,94518.63
2022-11-16T08:57:45.605Z,94530.25
2022-11-16T08:58:58.144Z,94520.13
2022-11-16T09:00:01.810Z,94525.56
2022-11-16T09:01:09.942Z,94520.88
2022-11-16T09:02:12.787Z,94517.75
2022-11-16T09:03:14.822Z,94525.91
2022-11-16T09:04:18.712Z,94518.50
2022-11-16T09:05:20.562Z,94516.53
2022-11-16T09:06:24.587Z,94527.41
2022-11-16T09:07:26.753Z,94521.56
2022-11-16T09:08:29.703Z,94527.00
2022-11-16T09:09:32.731Z,94523.53
2022-11-16T09:10:34.581Z,94529.28
2022-11-16T09:11:39.571Z,94528.53
2022-11-16T09:12:41.791Z,94526.91
2022-11-16T09:13:45.216Z,94532.78
2022-11-16T09:14:48.287Z,94530.81
2022-11-16T09:15:56.378Z,94526.13
2022-11-16T09:16:59.146Z,94528.44
2022-11-16T09:18:01.071Z,94532.69
2022-11-16T09:19:03.985Z,94531.91
2022-11-16T09:20:07.187Z,94534.63
2022-11-16T09:21:10.024Z,94525.28
2022-11-16T09:22:12.872Z,94535.41
2022-11-16T09:23:14.896Z,94529.97
2022-11-16T09:24:17.703Z,94529.50
2022-11-16T09:25:21.040Z,94538.44
2022-11-16T09:26:24.895Z,94539.22
2022-11-16T09:27:28.219Z,94535.28
2022-11-16T09:28:31.355Z,94530.59
2022-11-16T09:29:33.344Z,94537.59
2022-11-16T09:30:36.326Z,94536.06
2022-11-16T09:31:39.330Z,94542.28
2022-11-16T09:32:41.223Z,94542.28
2022-11-16T09:33:47.061Z,94541.50
2022-11-16T09:34:50.076Z,94541.50
2022-11-16T09:35:51.997Z,94548.47
2022-11-16T09:36:55.166Z,94543.03
2022-11-16T09:37:57.169Z,94537.59
2022-11-16T09:40:23.268Z,94543.03
2022-11-16T09:41:43.813Z,94544.56
2022-11-16T09:43:08.876Z,94544.13
2022-11-16T09:44:26.590Z,94543.38
2022-11-16T09:45:36.899Z,94542.16
2022-11-16T09:46:43.892Z,94547.59
2022-11-16T09:47:49.790Z,94551.53
2022-11-16T09:48:55.019Z,94544.13
2022-11-16T09:50:03.578Z,94547.59
2022-11-16T09:51:09.983Z,94546.44
2022-11-16T09:52:24.606Z,94548.38
2022-11-16T09:53:34.985Z,94543.72
2022-11-16T09:54:41.869Z,94545.22
2022-11-16T09:55:49.375Z,94545.22
2022-11-16T09:56:57.153Z,94546.44
2022-11-16T09:58:03.246Z,94546.72
2022-11-16T09:59:18.159Z,94544.78
2022-11-16T10:00:23.639Z,94549.47
2022-11-16T10:01:30.447Z,94541.28
2022-11-16T10:02:37.088Z,94541.28
2022-11-16T10:03:44.546Z,94544.78
2022-11-16T10:04:57.903Z,94542.50
2022-11-16T10:06:04.370Z,94541.28
2022-11-16T10:07:13.900Z,94548.28
2022-11-16T10:08:23.025Z,94545.56
2022-11-16T10:09:26.841Z,94549.03
2022-11-16T10:10:35.013Z,94540.44
2022-11-16T10:12:18.059Z,94536.50
2022-11-16T10:13:36.603Z,94539.56
2022-11-16T10:15:06.623Z,94544.25
2022-11-16T10:16:19.570Z,94548.94
2022-11-16T10:17:31.793Z,94548.94
2022-11-16T10:18:52.581Z,94546.97
2022-11-16T10:19:56.950Z,94543.50
2022-11-16T10:21:17.874Z,94543.50
2022-11-16T10:22:36.035Z,94548.94
2022-11-16T10:23:55.012Z,94544.25
2022-11-16T10:24:58.219Z,94546.56
2022-11-16T10:26:13.001Z,94541.09
2022-11-16T10:27:28.801Z,94541.88
2022-11-16T10:29:05.098Z,94540.22
2022-11-16T10:30:12.087Z,94537.50
2022-11-16T10:31:21.629Z,94544.91
2022-11-16T10:32:28.893Z,94538.72
2022-11-16T10:33:37.098Z,94534.78
2022-11-16T10:34:47.132Z,94536.31
2022-11-16T10:35:53.644Z,94532.41
2022-11-16T10:37:03.195Z,94537.41
2022-11-16T10:38:14.196Z,94530.44
2022-11-16T10:39:19.293Z,94528.47
2022-11-16T10:40:24.948Z,94526.06
2022-11-16T10:41:36.470Z,94533.81
2022-11-16T10:42:39.306Z,94524.44
2022-11-16T10:43:44.392Z,94537.63
2022-11-16T10:44:50.920Z,94526.75
2022-11-16T10:45:59.961Z,94528.25
2022-11-16T10:47:05.024Z,94533.69
2022-11-16T10:48:18.833Z,94530.22
2022-11-16T10:49:29.266Z,94533.69
2022-11-16T10:50:37.083Z,94527.50
2022-11-16T10:51:39.902Z,94524.34
2022-11-16T10:52:41.813Z,94530.56
2022-11-16T10:53:44.981Z,94531.31
2022-11-16T10:54:46.852Z,94527.41
2022-11-16T10:56:01.876Z,94532.41
2022-11-16T10:57:08.861Z,94527.75
2022-11-16T10:58:10.795Z,94522.63
2022-11-16T10:59:16.326Z,94530.78
2022-11-16T11:00:34.594Z,94525.66
2022-11-16T11:01:41.074Z,94520.19
2022-11-16T11:02:48.453Z,94513.56
2022-11-16T11:03:51.417Z,94520.53
2022-11-16T11:05:03.236Z,94519.34
2022-11-16T11:06:08.565Z,94518.13
2022-11-16T11:07:25.415Z,94512.25
2022-11-16T11:08:31.485Z,94519.22
2022-11-16T11:09:36.885Z,94513.78
2022-11-16T11:10:42.313Z,94513.34
2022-11-16T11:12:16.165Z,94512.13
2022-11-16T11:13:26.330Z,94514.88
2022-11-16T11:14:28.416Z,94515.19
2022-11-16T11:15:31.652Z,94515.19
2022-11-16T11:16:33.713Z,94518.38
2022-11-16T11:17:39.660Z,94514.44
2022-11-16T11:18:42.913Z,94511.28
2022-11-16T11:19:45.745Z,94512.03
2022-11-16T11:20:51.058Z,94504.63
2022-11-16T11:21:57.308Z,94513.56
2022-11-16T11:23:03.700Z,94502.66
2022-11-16T11:24:42.407Z,94519.78
2022-11-16T11:25:33.347Z,94505.72
2022-11-16T11:26:37.503Z,94510.75
2022-11-16T11:27:40.820Z,94514.97
2022-11-16T11:28:48.037Z,94516.19
2022-11-16T11:29:55.044Z,94512.25
2022-11-16T11:31:01.572Z,94512.56
2022-11-16T11:32:07.501Z,94512.56
2022-11-16T11:33:13.927Z,94511.41
2022-11-16T11:34:20.270Z,94514.13
2022-11-16T11:35:24.987Z,94508.66
2022-11-16T11:36:33.060Z,94513.38
2022-11-16T11:37:40.126Z,94514.88
2022-11-16T11:38:57.936Z,94514.88
2022-11-16T11:40:22.935Z,94514.13
2022-11-16T11:41:25.139Z,94516.84
2022-11-16T11:42:28.617Z,94517.19
2022-11-16T11:43:33.600Z,94522.63
2022-11-16T11:44:50.281Z,94506.28
2022-11-16T11:45:58.528Z,94512.91
2022-11-16T11:48:55.317Z,94517.94
2022-11-16T11:50:07.896Z,94515.22
2022-11-16T11:51:16.006Z,94517.94
2022-11-16T11:52:25.477Z,94518.69
2022-11-16T11:53:45.003Z,94516.72
2022-11-16T11:54:50.696Z,94517.19
2022-11-16T11:55:57.813Z,94519.44
2022-11-16T11:57:04.822Z,94521.41
2022-11-16T11:58:15.448Z,94519.44
2022-11-16T11:59:22.544Z,94514.00
2022-11-16T12:00:26.116Z,94525.69
2022-11-16T12:01:50.330Z,94512.06
2022-11-16T12:03:23.628Z,94514.78
2022-11-16T12:04:57.546Z,94521.75
2022-11-16T12:06:09.892Z,94520.97
2022-11-16T12:07:22.127Z,94516.28
2022-11-16T12:08:41.742Z,94514.78
2022-11-16T12:09:52.713Z,94510.09
2022-11-16T12:11:02.858Z,94516.28
2022-11-16T12:12:21.073Z,94519.00
2022-11-16T12:13:47.332Z,94513.56
2022-11-16T12:15:04.154Z,94506.59
2022-11-16T12:16:15.312Z,94510.09
2022-11-16T12:17:28.305Z,94501.91
2022-11-16T12:18:47.381Z,94503.88
2022-11-16T12:20:03.372Z,94501.16
2022-11-16T12:21:13.461Z,94499.94
2022-11-16T12:22:35.024Z,94492.97
2022-11-16T12:23:51.433Z,94497.97
2022-11-16T12:25:06.965Z,94499.94
2022-11-16T12:26:19.652Z,94499.94
2022-11-16T12:27:32.850Z,94494.50
2022-11-16T12:28:52.476Z,94497.22
2022-11-16T12:30:04.456Z,94496.00
2022-11-16T12:31:25.458Z,94484.34
2022-11-16T12:32:43.550Z,94490.56
2022-11-16T12:33:56.182Z,94492.09
2022-11-16T12:35:23.038Z,94488.16
2022-11-16T12:36:34.491Z,94494.41
2022-11-16T12:37:46.579Z,94489.69
2022-11-16T12:39:01.940Z,94491.22
2022-11-16T12:40:24.511Z,94494.69
2022-11-16T12:41:47.577Z,94488.09
2022-11-16T12:42:56.791Z,94488.84
2022-11-16T12:44:01.710Z,94494.63
2022-11-16T12:45:19.110Z,94491.91
2022-11-16T12:46:30.012Z,94489.94
2022-11-16T12:47:43.749Z,94486.44
2022-11-16T12:49:18.056Z,94490.25
2022-11-16T12:50:38.010Z,94486.34
2022-11-16T12:51:56.615Z,94487.84
2022-11-16T12:53:17.281Z,94488.63
2022-11-16T12:54:34.525Z,94481.53
2022-11-16T12:55:43.930Z,94479.59
2022-11-16T12:56:55.332Z,94479.13
2022-11-16T12:58:13.865Z,94480.66
2022-11-16T12:59:31.961Z,94479.44
2022-11-16T13:00:47.952Z,94477.06
2022-11-16T13:02:03.404Z,94483.59
2022-11-16T13:03:19.896Z,94475.72
2022-11-16T13:04:26.654Z,94487.72
2022-11-16T13:05:44.238Z,94480.63
2022-11-16T13:06:52.752Z,94482.59
2022-11-16T13:07:58.502Z,94483.34
2022-11-16T13:09:08.522Z,94481.84
2022-11-16T13:10:16.292Z,94485.63
2022-11-16T13:11:23.871Z,94477.03
2022-11-16T13:12:27.725Z,94475.06
2022-11-16T13:13:38.341Z,94484.00
2022-11-16T13:14:45.258Z,94470.38
2022-11-16T13:15:48.008Z,94482.78
2022-11-16T13:16:52.369Z,94475.81
2022-11-16T13:17:59.819Z,94478.53
2022-11-16T13:19:07.735Z,94474.59